Time;durP1;ratioP1;P1;durP2;ratioP2;P2;SDS_P1;SDS_P2;PMS_P1;PMS_P2;Temp;Humidity;BMP_temperature;BMP_pressure;BME280_temperature;BME280_humidity;BME280_pressure;Samples;Min_cycle;Max_cycle;Signal;HPM_P1;HPM_P2
2022/04/17 00:00:48;;;;;;;15.65;4.38;;;;;;;12.86;100.00;100913.69;7391334;19;20339;-57
2022/04/17 00:03:14;;;;;;;5.45;2.50;;;;;;;12.81;100.00;100911.50;7391509;19;20030;-58
2022/04/17 00:05:40;;;;;;;6.50;2.38;;;;;;;12.74;100.00;100909.00;7391794;19;20401;-57
2022/04/17 00:08:06;;;;;;;5.03;2.72;;;;;;;12.66;100.00;100911.34;7393317;19;20405;-57
2022/04/17 00:10:32;;;;;;;8.25;3.35;;;;;;;12.66;100.00;100902.19;7391484;19;20021;-57
2022/04/17 00:13:00;;;;;;;6.82;2.53;;;;;;;12.55;100.00;100905.44;7390385;19;20030;-57
2022/04/17 00:15:26;;;;;;;5.68;3.13;;;;;;;12.67;100.00;100900.91;7390475;19;20045;-57
2022/04/17 00:17:52;;;;;;;6.32;4.45;;;;;;;12.65;100.00;100895.03;7389538;19;20404;-57
2022/04/17 00:20:19;;;;;;;8.32;3.17;;;;;;;12.60;100.00;100892.88;7391822;19;20006;-57
2022/04/17 00:22:45;;;;;;;6.93;2.72;;;;;;;12.46;100.00;100894.22;7390975;19;20352;-58
2022/04/17 00:25:12;;;;;;;7.50;3.65;;;;;;;12.49;100.00;100886.94;7388579;19;20018;-57
2022/04/17 00:27:41;;;;;;;5.95;3.08;;;;;;;12.43;100.00;100881.19;7390279;19;20724;-57
2022/04/17 00:30:10;;;;;;;8.63;2.47;;;;;;;12.44;100.00;100881.97;7391965;19;20014;-57
2022/04/17 00:32:38;;;;;;;9.13;3.15;;;;;;;12.41;100.00;100877.31;7397193;19;20039;-57
2022/04/17 00:35:08;;;;;;;11.27;3.80;;;;;;;12.42;100.00;100882.44;7394234;19;20011;-57
2022/04/17 00:37:35;;;;;;;10.15;3.70;;;;;;;12.34;100.00;100872.81;7394151;19;20006;-57
2022/04/17 00:40:02;;;;;;;12.85;4.80;;;;;;;12.36;100.00;100875.13;7399078;19;20022;-57
2022/04/17 00:42:28;;;;;;;9.73;2.00;;;;;;;12.44;100.00;100871.56;7397270;19;20407;-57
2022/04/17 00:44:54;;;;;;;11.60;3.30;;;;;;;12.50;100.00;100866.13;7399460;19;20025;-57
2022/04/17 00:47:20;;;;;;;8.63;3.00;;;;;;;12.59;100.00;100866.16;7398735;19;20010;-57
2022/04/17 00:49:47;;;;;;;9.98;2.63;;;;;;;12.62;100.00;100870.81;7398245;19;20039;-57
2022/04/17 00:52:14;;;;;;;4.35;1.92;;;;;;;12.65;100.00;100865.06;7398097;19;20023;-57
2022/04/17 00:54:45;;;;;;;7.50;3.20;;;;;;;12.63;100.00;100855.59;7395267;19;20018;-57
2022/04/17 00:57:15;;;;;;;7.47;2.85;;;;;;;12.59;100.00;100852.19;7400181;19;20342;-57
2022/04/17 00:59:44;;;;;;;7.82;2.28;;;;;;;12.48;100.00;100860.22;7398920;19;20358;-57
2022/04/17 01:02:11;;;;;;;13.90;3.03;;;;;;;12.42;100.00;100857.28;7401579;19;20014;-57
2022/04/17 01:04:39;;;;;;;7.45;2.47;;;;;;;12.56;100.00;100850.31;7398077;19;20045;-57
2022/04/17 01:07:06;;;;;;;7.65;3.53;;;;;;;12.48;100.00;100849.06;7398612;19;20455;-57
2022/04/17 01:09:33;;;;;;;6.38;2.75;;;;;;;12.43;100.00;100841.31;7395127;19;20014;-57
2022/04/17 01:11:59;;;;;;;16.77;4.38;;;;;;;12.38;100.00;100844.72;7395862;19;20014;-57
2022/04/17 01:14:29;;;;;;;9.30;3.20;;;;;;;12.33;100.00;100836.94;7397528;19;20006;-56
2022/04/17 01:16:55;;;;;;;9.77;3.77;;;;;;;12.24;100.00;100836.91;7397317;19;20021;-56
2022/04/17 01:19:23;;;;;;;7.78;3.45;;;;;;;12.18;100.00;100843.13;7398395;19;20018;-56
2022/04/17 01:21:50;;;;;;;9.30;3.10;;;;;;;12.22;100.00;100840.19;7396363;19;20584;-56
2022/04/17 01:27:03;;;;;;;8.23;2.58;;;;;;;12.14;100.00;100842.50;7393710;19;20463;-56
2022/04/17 01:29:34;;;;;;;11.10;4.30;;;;;;;12.12;100.00;100839.41;7394473;19;20018;-56
2022/04/17 01:32:04;;;;;;;5.13;2.67;;;;;;;11.98;100.00;100837.19;7396622;19;20478;-56
2022/04/17 01:34:31;;;;;;;4.72;2.83;;;;;;;11.92;100.00;100847.41;7393261;19;20033;-56
2022/04/17 01:36:59;;;;;;;5.72;2.75;;;;;;;11.98;100.00;100839.97;7395672;19;20011;-57
2022/04/17 01:39:25;;;;;;;11.15;2.78;;;;;;;12.07;100.00;100831.63;7395252;19;20014;-56
2022/04/17 01:41:53;;;;;;;11.05;3.30;;;;;;;12.04;100.00;100835.34;7396319;19;20010;-56
2022/04/17 01:44:24;;;;;;;12.88;2.80;;;;;;;11.98;100.00;100834.41;7397838;19;20047;-56
2022/04/17 01:46:51;;;;;;;12.70;3.53;;;;;;;11.97;100.00;100826.50;7396149;19;20030;-56
2022/04/17 01:49:18;;;;;;;8.05;3.95;;;;;;;11.95;100.00;100824.13;7396573;19;20011;-56
2022/04/17 01:51:46;;;;;;;7.78;2.67;;;;;;;11.96;100.00;100824.94;7395043;19;20014;-56
2022/04/17 01:54:18;;;;;;;5.72;3.05;;;;;;;11.89;100.00;100823.19;7398903;19;20353;-56
2022/04/17 01:56:49;;;;;;;14.63;3.13;;;;;;;11.88;100.00;100818.09;7394403;19;20010;-56
2022/04/17 01:59:17;;;;;;;9.30;3.80;;;;;;;11.87;100.00;100817.31;7396403;19;20042;-56
2022/04/17 02:01:45;;;;;;;9.50;3.15;;;;;;;11.86;100.00;100821.34;7395766;19;20104;-56
2022/04/17 02:04:12;;;;;;;10.40;3.88;;;;;;;11.83;100.00;100816.69;7395836;19;20014;-56
2022/04/17 02:06:39;;;;;;;15.18;3.88;;;;;;;11.73;100.00;100817.13;7399911;19;20038;-56
2022/04/17 02:09:08;;;;;;;9.40;3.60;;;;;;;11.79;100.00;100816.03;7396252;19;20043;-56
2022/04/17 02:11:35;;;;;;;13.18;2.88;;;;;;;11.79;100.00;100821.63;7393481;19;20050;-56
2022/04/17 02:14:03;;;;;;;7.97;4.35;;;;;;;11.73;100.00;100817.13;7394328;19;20481;-56
2022/04/17 02:16:29;;;;;;;17.77;4.10;;;;;;;11.69;100.00;100811.69;7397773;19;20399;-56
2022/04/17 02:18:56;;;;;;;13.95;4.75;;;;;;;11.74;100.00;100813.84;7395133;19;20117;-59
2022/04/17 02:21:22;;;;;;;7.25;3.83;;;;;;;11.74;100.00;100808.28;7395046;19;20352;-59
2022/04/17 02:23:48;;;;;;;18.40;4.70;;;;;;;11.68;100.00;100798.97;7395427;19;20027;-59
2022/04/17 02:26:19;;;;;;;7.82;4.60;;;;;;;11.69;100.00;100808.91;7393837;19;20017;-60
2022/04/17 02:28:49;;;;;;;12.10;4.22;;;;;;;11.65;100.00;100805.41;7393797;19;20027;-59
2022/04/17 02:31:17;;;;;;;13.60;4.22;;;;;;;11.65;100.00;100799.09;7393083;19;20007;-59
2022/04/17 02:33:43;;;;;;;15.07;4.93;;;;;;;11.65;100.00;100801.88;7398500;19;20014;-59
2022/04/17 02:36:11;;;;;;;5.53;3.17;;;;;;;11.57;100.00;100806.94;7395177;19;20047;-59
2022/04/17 02:38:38;;;;;;;14.90;3.97;;;;;;;11.49;100.00;100802.91;7394366;19;20078;-59
2022/04/17 02:41:05;;;;;;;7.15;3.33;;;;;;;11.46;100.00;100798.22;7393161;19;20035;-59
2022/04/17 02:43:32;;;;;;;7.78;3.55;;;;;;;11.37;100.00;100798.97;7394795;19;20062;-59
2022/04/17 02:45:58;;;;;;;12.10;4.65;;;;;;;11.38;100.00;100794.16;7392717;19;20011;-59
2022/04/17 02:48:24;;;;;;;8.38;2.75;;;;;;;11.36;100.00;100791.06;7394585;19;20011;-58
2022/04/17 02:50:51;;;;;;;6.65;2.88;;;;;;;11.33;100.00;100794.75;7392732;19;20464;-59
2022/04/17 02:53:17;;;;;;;18.63;4.57;;;;;;;11.32;100.00;100787.63;7397737;19;20384;-59
2022/04/17 02:55:44;;;;;;;15.98;3.70;;;;;;;11.27;100.00;100786.22;7394215;19;20039;-59
2022/04/17 02:58:16;;;;;;;11.30;2.67;;;;;;;11.27;100.00;100779.84;7392168;19;20014;-57
2022/04/17 03:06:16;;;;;;;8.30;3.15;;;;;;;11.11;100.00;100783.66;7392112;19;20027;-56
2022/04/17 03:08:44;;;;;;;12.40;2.70;;;;;;;11.04;100.00;100777.56;7393907;19;20331;-56
2022/04/17 03:11:11;;;;;;;20.13;4.35;;;;;;;11.03;100.00;100776.00;7390370;19;20041;-56
2022/04/17 03:13:41;;;;;;;10.02;4.25;;;;;;;11.03;100.00;100770.44;7392682;19;20249;-56
2022/04/17 03:16:09;;;;;;;10.13;4.22;;;;;;;10.96;100.00;100776.31;7393858;19;20093;-56
2022/04/17 03:18:35;;;;;;;7.82;2.33;;;;;;;10.94;100.00;100768.38;7392916;19;20007;-56
2022/04/17 03:21:01;;;;;;;11.30;5.18;;;;;;;10.94;100.00;100762.03;7395114;19;20098;-56
2022/04/17 03:23:27;;;;;;;8.40;3.33;;;;;;;10.94;100.00;100756.44;7396356;19;20014;-56
2022/04/17 03:25:54;;;;;;;13.25;3.88;;;;;;;10.85;100.00;100756.41;7394758;19;20011;-56
2022/04/17 03:28:20;;;;;;;12.25;4.80;;;;;;;10.79;100.00;100750.63;7397047;19;20027;-56
2022/04/17 03:30:46;;;;;;;11.40;3.35;;;;;;;10.73;100.00;100751.69;7394013;19;20017;-56
2022/04/17 03:33:13;;;;;;;9.63;3.80;;;;;;;10.65;100.00;100746.38;7393643;19;20007;-56
2022/04/17 03:35:39;;;;;;;8.95;3.55;;;;;;;10.57;100.00;100745.09;7392961;19;20006;-56
2022/04/17 03:38:05;;;;;;;5.80;3.25;;;;;;;10.59;100.00;100739.06;7392264;19;20011;-56
2022/04/17 03:40:31;;;;;;;8.98;2.22;;;;;;;10.59;100.00;100736.25;7392598;19;20019;-56
2022/04/17 03:42:58;;;;;;;9.55;3.67;;;;;;;10.56;100.00;100743.53;7393674;19;20006;-56
2022/04/17 03:45:24;;;;;;;11.70;3.47;;;;;;;10.51;100.00;100735.75;7392660;19;20014;-55
2022/04/17 03:47:50;;;;;;;9.80;3.53;;;;;;;10.54;100.00;100734.88;7392111;19;20074;-57
2022/04/17 03:50:17;;;;;;;12.98;3.42;;;;;;;10.49;100.00;100727.09;7392556;19;20022;-56
2022/04/17 03:52:44;;;;;;;10.77;3.83;;;;;;;10.47;100.00;100732.34;7393178;19;20014;-56
2022/04/17 03:55:12;;;;;;;7.70;3.45;;;;;;;10.54;100.00;100728.50;7393394;19;20017;-56
2022/04/17 03:57:38;;;;;;;10.75;2.92;;;;;;;10.53;100.00;100716.59;7392542;19;20014;-56
2022/04/17 04:00:11;;;;;;;11.63;3.92;;;;;;;10.54;100.00;100718.16;7392176;19;20467;-56
2022/04/17 04:02:41;;;;;;;8.65;3.67;;;;;;;10.46;100.00;100725.19;7396239;19;20093;-56
2022/04/17 04:05:09;;;;;;;12.80;3.97;;;;;;;10.44;100.00;100724.09;7390544;19;20537;-56
2022/04/17 04:07:37;;;;;;;14.07;4.32;;;;;;;10.38;100.00;100715.56;7392556;19;20014;-56
2022/04/17 04:10:05;;;;;;;13.90;3.83;;;;;;;10.38;100.00;100718.34;7392431;19;20015;-57
2022/04/17 04:12:35;;;;;;;7.38;3.38;;;;;;;10.39;100.00;100716.34;7393579;19;20070;-56
2022/04/17 04:15:03;;;;;;;12.98;3.45;;;;;;;10.45;100.00;100706.94;7399459;19;20010;-58
2022/04/17 04:17:29;;;;;;;15.98;4.07;;;;;;;10.36;100.00;100709.66;7397421;19;20459;-56
2022/04/17 04:19:57;;;;;;;4.95;3.35;;;;;;;10.38;100.00;100698.84;7398732;19;20022;-56
2022/04/17 04:22:26;;;;;;;8.05;4.95;;;;;;;10.40;100.00;100709.53;7398390;19;20053;-56
2022/04/17 04:24:55;;;;;;;11.93;4.53;;;;;;;10.40;100.00;100701.97;7401601;19;20006;-56
2022/04/17 04:30:06;;;;;;;10.80;3.42;;;;;;;10.42;100.00;100704.28;7400856;19;20077;-56
2022/04/17 04:32:34;;;;;;;14.07;4.13;;;;;;;10.40;100.00;100699.16;7402838;19;20348;-56
2022/04/17 04:35:02;;;;;;;11.15;3.40;;;;;;;10.28;100.00;100702.81;7399370;19;20015;-56
2022/04/17 04:37:28;;;;;;;11.85;2.83;;;;;;;10.19;100.00;100704.75;7402190;19;20002;-56
2022/04/17 04:39:55;;;;;;;15.30;4.85;;;;;;;10.12;100.00;100702.97;7402053;19;20006;-56
2022/04/17 04:42:21;;;;;;;14.10;4.45;;;;;;;10.05;100.00;100703.19;7402373;19;20007;-56
2022/04/17 04:44:47;;;;;;;17.02;3.60;;;;;;;10.04;100.00;100696.09;7402420;19;20476;-56
2022/04/17 04:47:13;;;;;;;4.35;2.42;;;;;;;10.04;100.00;100696.09;7402593;19;20007;-56
2022/04/17 04:49:40;;;;;;;4.78;2.42;;;;;;;9.98;100.00;100697.13;7399551;19;20006;-56
2022/04/17 04:52:06;;;;;;;17.27;4.80;;;;;;;9.90;100.00;100696.56;7401769;19;20019;-56
2022/04/17 04:54:32;;;;;;;12.55;4.32;;;;;;;9.99;100.00;100696.66;7398632;19;20014;-56
2022/04/17 04:57:00;;;;;;;9.65;2.90;;;;;;;9.98;100.00;100691.56;7398556;19;20011;-56
2022/04/17 04:59:26;;;;;;;4.45;1.50;;;;;;;9.96;100.00;100688.44;7401763;19;20098;-55
2022/04/17 05:01:52;;;;;;;11.15;3.85;;;;;;;9.88;100.00;100688.69;7401606;19;20068;-56
2022/04/17 05:04:20;;;;;;;5.80;2.72;;;;;;;9.86;100.00;100685.59;7401506;19;20039;-56
2022/04/17 05:06:46;;;;;;;8.20;2.97;;;;;;;9.87;100.00;100680.81;7402230;19;20010;-56
2022/04/17 05:09:13;;;;;;;10.15;3.55;;;;;;;9.75;100.00;100679.59;7401404;19;20014;-56
2022/04/17 05:11:39;;;;;;;5.18;2.92;;;;;;;9.71;100.00;100672.59;7400407;19;20022;-55
2022/04/17 05:14:07;;;;;;;7.50;2.55;;;;;;;9.67;100.00;100683.88;7396808;19;20019;-56
2022/04/17 05:16:36;;;;;;;4.65;3.78;;;;;;;9.67;100.00;100675.53;7396248;19;20021;-55
2022/04/17 05:19:24;;;;;;;14.32;2.78;;;;;;;9.61;100.00;100674.53;7395109;19;20019;-56
2022/04/17 05:21:57;;;;;;;8.52;2.88;;;;;;;9.60;100.00;100672.19;7397665;19;20078;-56
2022/04/17 05:24:24;;;;;;;15.02;3.03;;;;;;;9.56;100.00;100671.53;7396014;19;20015;-56
2022/04/17 05:26:51;;;;;;;17.70;4.28;;;;;;;9.58;100.00;100669.09;7396478;19;20014;-56
2022/04/17 05:29:18;;;;;;;19.52;3.97;;;;;;;9.68;100.00;100659.63;7397407;19;20018;-56
2022/04/17 05:31:46;;;;;;;10.25;4.57;;;;;;;9.64;100.00;100667.28;7397491;19;20023;-56
2022/04/17 05:34:13;;;;;;;5.00;2.35;;;;;;;9.73;100.00;100659.03;7401735;19;20017;-56
2022/04/17 05:36:39;;;;;;;12.82;3.50;;;;;;;9.82;100.00;100668.25;7394950;19;20006;-56
2022/04/17 05:39:05;;;;;;;19.60;6.18;;;;;;;9.88;100.00;100660.09;7394515;19;20006;-55
2022/04/17 05:41:32;;;;;;;10.90;4.10;;;;;;;9.90;100.00;100663.19;7399801;19;20066;-56
2022/04/17 05:43:59;;;;;;;8.82;2.40;;;;;;;9.88;100.00;100671.22;7399897;19;20002;-56
2022/04/17 05:46:30;;;;;;;12.50;3.33;;;;;;;9.97;100.00;100662.94;7398514;19;20053;-56
2022/04/17 05:48:57;;;;;;;9.75;3.53;;;;;;;9.99;100.00;100660.50;7401421;19;20011;-56
2022/04/17 05:51:24;;;;;;;9.55;2.80;;;;;;;10.05;100.00;100661.44;7398371;19;20010;-57
2022/04/17 05:53:51;;;;;;;18.00;5.38;;;;;;;10.07;100.00;100661.78;7398711;19;20014;-56
2022/04/17 05:56:18;;;;;;;9.27;3.63;;;;;;;10.16;100.00;100663.88;7398873;19;20006;-57
2022/04/17 05:58:45;;;;;;;13.55;4.43;;;;;;;10.29;100.00;100662.59;7398341;19;20015;-59
2022/04/17 06:01:11;;;;;;;13.90;4.25;;;;;;;10.42;100.00;100670.88;7398871;19;20014;-59
2022/04/17 06:03:37;;;;;;;5.13;3.00;;;;;;;10.49;100.00;100665.81;7396617;19;20018;-59
2022/04/17 06:06:03;;;;;;;9.57;4.03;;;;;;;10.60;100.00;100659.84;7398982;19;20014;-59
2022/04/17 06:08:29;;;;;;;4.03;2.78;;;;;;;10.75;100.00;100663.63;7396705;19;20006;-59
2022/04/17 06:10:57;;;;;;;16.17;4.38;;;;;;;10.80;100.00;100662.25;7390077;19;20459;-59
2022/04/17 06:13:23;;;;;;;12.18;3.65;;;;;;;10.85;100.00;100658.88;7391668;19;20022;-59
2022/04/17 06:15:49;;;;;;;17.27;3.35;;;;;;;10.89;100.00;100653.94;7391678;19;20352;-59
2022/04/17 06:18:15;;;;;;;7.72;3.08;;;;;;;10.96;100.00;100653.69;7395685;19;20039;-59
2022/04/17 06:20:42;;;;;;;18.35;4.82;;;;;;;11.11;100.00;100646.28;7390170;19;20020;-60
2022/04/17 06:23:08;;;;;;;14.15;4.88;;;;;;;11.21;100.00;100643.06;7390077;19;20010;-59
2022/04/17 06:25:34;;;;;;;12.68;3.50;;;;;;;11.35;100.00;100639.69;7391846;19;20074;-59
2022/04/17 06:28:00;;;;;;;11.00;2.88;;;;;;;11.52;100.00;100639.41;7398623;19;20078;-59
2022/04/17 06:30:33;;;;;;;11.30;3.88;;;;;;;11.63;100.00;100636.94;7392559;19;20021;-59
2022/04/17 06:32:59;;;;;;;30.60;2.90;;;;;;;11.68;100.00;100642.69;7395782;19;20034;-60
2022/04/17 06:35:26;;;;;;;26.25;5.03;;;;;;;11.85;100.00;100635.56;7390506;19;20045;-59
2022/04/17 06:37:56;;;;;;;11.60;5.07;;;;;;;12.03;100.00;100641.16;7394876;19;20022;-60
2022/04/17 06:40:23;;;;;;;11.75;5.22;;;;;;;12.10;100.00;100632.47;7392578;19;20025;-60
2022/04/17 06:42:52;;;;;;;12.45;3.40;;;;;;;12.11;100.00;100636.81;7391542;19;20014;-60
2022/04/17 06:45:18;;;;;;;11.55;4.95;;;;;;;12.19;100.00;100634.47;7393895;19;20011;-61
2022/04/17 06:47:45;;;;;;;15.68;5.63;;;;;;;12.31;100.00;100627.16;7391280;19;20040;-60
2022/04/17 06:50:13;;;;;;;9.63;3.30;;;;;;;12.43;100.00;100631.78;7393102;19;20051;-60
2022/04/17 06:52:39;;;;;;;20.35;5.45;;;;;;;12.56;100.00;100619.16;7395285;19;20045;-60
2022/04/17 06:55:11;;;;;;;12.23;4.93;;;;;;;12.72;100.00;100613.22;7394354;19;20010;-61
2022/04/17 06:57:46;;;;;;;23.38;5.93;;;;;;;12.80;100.00;100608.06;7394320;19;20010;-60
2022/04/17 07:00:17;;;;;;;16.15;4.47;;;;;;;12.90;100.00;100609.56;7394079;19;20011;-60
2022/04/17 07:02:44;;;;;;;11.20;4.03;;;;;;;13.02;100.00;100599.41;7398318;19;20742;-60
2022/04/17 07:05:12;;;;;;;19.73;4.90;;;;;;;13.18;100.00;100605.41;7394211;19;20037;-60
2022/04/17 07:07:38;;;;;;;12.90;4.97;;;;;;;13.24;100.00;100595.13;7395183;19;20015;-61
2022/04/17 07:10:05;;;;;;;28.27;7.45;;;;;;;13.33;100.00;100597.84;7392103;19;20066;-60
2022/04/17 07:12:34;;;;;;;9.82;5.47;;;;;;;13.53;100.00;100598.03;7393649;19;20013;-60
2022/04/17 07:15:01;;;;;;;9.32;5.38;;;;;;;13.56;100.00;100596.28;7396429;19;20038;-61
2022/04/17 07:17:39;;;;;;;10.88;5.15;;;;;;;13.66;100.00;100592.94;7392377;19;20022;-60
2022/04/17 07:20:07;;;;;;;17.77;7.15;;;;;;;13.81;100.00;100589.41;7393568;19;20372;-61
2022/04/17 07:22:34;;;;;;;22.08;5.60;;;;;;;13.92;100.00;100589.63;7394769;19;20026;-61
2022/04/17 07:25:01;;;;;;;15.75;5.18;;;;;;;14.09;100.00;100585.09;7392489;19;20035;-61
2022/04/17 07:27:28;;;;;;;12.02;5.72;;;;;;;14.23;100.00;100587.13;7394986;19;20051;-60
2022/04/17 07:29:55;;;;;;;12.27;5.38;;;;;;;14.40;100.00;100585.44;7396929;19;20355;-60
2022/04/17 07:32:21;;;;;;;29.63;7.15;;;;;;;14.67;100.00;100573.88;7395432;19;20087;-60
2022/04/17 07:34:47;;;;;;;22.40;6.03;;;;;;;14.86;100.00;100577.22;7395595;19;20041;-60
2022/04/17 07:37:24;;;;;;;12.70;4.82;;;;;;;14.97;100.00;100571.75;7395429;19;20014;-60
2022/04/17 07:39:50;;;;;;;15.57;4.63;;;;;;;15.09;100.00;100563.00;7396295;19;20112;-61
2022/04/17 07:42:19;;;;;;;20.15;5.15;;;;;;;15.08;100.00;100561.47;7392997;19;20011;-56
2022/04/17 07:44:46;;;;;;;11.88;5.40;;;;;;;15.17;100.00;100563.38;7393199;19;20492;-57
2022/04/17 07:47:13;;;;;;;18.73;5.85;;;;;;;15.28;100.00;100566.34;7393487;19;20012;-57
2022/04/17 07:49:39;;;;;;;12.57;5.25;;;;;;;15.39;100.00;100560.09;7400256;19;20011;-57
2022/04/17 07:52:06;;;;;;;28.25;7.78;;;;;;;15.41;100.00;100563.19;7399450;19;20066;-57
2022/04/17 07:54:34;;;;;;;20.88;6.32;;;;;;;15.49;100.00;100547.47;7400956;19;20018;-56
2022/04/17 07:57:00;;;;;;;18.42;5.47;;;;;;;15.57;100.00;100551.41;7402240;19;20355;-57
2022/04/17 07:59:27;;;;;;;14.13;5.55;;;;;;;15.64;100.00;100545.34;7402459;19;20014;-57
2022/04/17 08:02:11;;;;;;;14.73;5.80;;;;;;;15.71;100.00;100548.50;7402447;19;20014;-57
2022/04/17 08:04:40;;;;;;;20.67;6.72;;;;;;;15.62;100.00;100536.66;7402290;19;20014;-61
2022/04/17 08:07:10;;;;;;;12.80;5.45;;;;;;;15.73;100.00;100533.97;7403570;19;20013;-61
2022/04/17 08:09:37;;;;;;;13.77;5.60;;;;;;;15.80;100.00;100533.53;7403040;19;20456;-61
2022/04/17 08:12:04;;;;;;;16.85;6.40;;;;;;;15.97;100.00;100534.47;7398965;19;20011;-57
2022/04/17 08:14:31;;;;;;;15.68;4.55;;;;;;;16.12;100.00;100523.88;7404031;19;20014;-57
2022/04/17 08:16:57;;;;;;;13.13;5.50;;;;;;;16.16;100.00;100530.03;7403530;19;20077;-56
2022/04/17 08:19:24;;;;;;;19.33;6.65;;;;;;;16.15;100.00;100522.13;7402961;19;20016;-56
2022/04/17 08:21:51;;;;;;;8.35;3.25;;;;;;;16.17;100.00;100522.38;7403878;19;20019;-56
2022/04/17 08:24:18;;;;;;;15.15;6.43;;;;;;;16.28;100.00;100523.25;7402261;19;20724;-57
2022/04/17 08:26:44;;;;;;;18.40;6.18;;;;;;;16.29;100.00;100521.97;7401802;19;20441;-56
2022/04/17 08:29:11;;;;;;;20.77;5.43;;;;;;;16.45;100.00;100524.16;7403160;19;20014;-57
2022/04/17 08:31:37;;;;;;;10.90;5.38;;;;;;;16.53;100.00;100530.91;7398997;19;20011;-57
2022/04/17 08:34:03;;;;;;;16.77;5.40;;;;;;;16.58;100.00;100521.72;7402018;19;20015;-57
2022/04/17 08:36:29;;;;;;;13.13;4.07;;;;;;;16.67;100.00;100513.06;7402376;19;20010;-57
2022/04/17 08:38:57;;;;;;;14.30;5.63;;;;;;;16.85;100.00;100508.34;7402045;19;20456;-57
2022/04/17 08:41:29;;;;;;;12.52;4.88;;;;;;;16.90;100.00;100513.22;7397315;19;20011;-57
2022/04/17 08:43:55;;;;;;;12.38;4.97;;;;;;;16.82;100.00;100512.16;7400011;19;20361;-57
2022/04/17 08:46:25;;;;;;;17.67;6.13;;;;;;;16.85;100.00;100500.66;7395248;19;20466;-57
2022/04/17 08:48:52;;;;;;;15.53;5.90;;;;;;;16.97;100.00;100498.69;7398388;19;20019;-57
2022/04/17 08:51:21;;;;;;;7.90;4.82;;;;;;;17.10;100.00;100494.16;7400581;19;20023;-57
2022/04/17 08:53:49;;;;;;;15.07;4.93;;;;;;;16.97;100.00;100493.84;7402259;19;20002;-57
2022/04/17 08:56:15;;;;;;;19.08;6.00;;;;;;;17.14;100.00;100494.69;7402156;19;20018;-57
2022/04/17 08:58:42;;;;;;;13.48;4.90;;;;;;;17.33;100.00;100486.53;7399901;19;20022;-57
2022/04/17 09:01:13;;;;;;;13.50;4.88;;;;;;;17.46;100.00;100481.22;7402083;19;20014;-57
2022/04/17 09:03:39;;;;;;;19.65;6.20;;;;;;;17.53;100.00;100479.97;7402108;19;20010;-57
2022/04/17 09:06:05;;;;;;;12.30;5.10;;;;;;;16.37;100.00;100478.09;7401550;19;20007;-57
2022/04/17 09:08:33;;;;;;;16.77;4.72;;;;;;;17.20;100.00;100475.75;7399352;19;20015;-57
2022/04/17 09:10:59;;;;;;;23.45;7.20;;;;;;;17.43;100.00;100465.34;7399531;19;20015;-57
2022/04/17 09:13:35;;;;;;;18.45;6.10;;;;;;;17.72;100.00;100458.50;7398963;19;20013;-57
2022/04/17 09:16:02;;;;;;;16.00;4.97;;;;;;;17.91;100.00;100459.56;7399325;19;20495;-57
2022/04/17 09:18:31;;;;;;;14.73;5.03;;;;;;;18.05;100.00;100458.53;7397949;19;20011;-57
2022/04/17 09:20:58;;;;;;;18.83;5.43;;;;;;;18.14;100.00;100450.59;7395905;19;20070;-57
2022/04/17 09:23:36;;;;;;;14.90;5.40;;;;;;;18.27;100.00;100452.09;7397693;19;20019;-57
2022/04/17 09:26:04;;;;;;;15.68;5.85;;;;;;;18.41;100.00;100446.19;7394572;19;20067;-57
2022/04/17 09:28:36;;;;;;;14.40;4.53;;;;;;;18.54;100.00;100448.50;7399603;19;20015;-57
2022/04/17 09:31:10;;;;;;;11.30;4.63;;;;;;;18.66;100.00;100442.31;7394601;19;20017;-57
2022/04/17 09:33:39;;;;;;;14.57;5.78;;;;;;;18.67;100.00;100434.59;7395988;19;20018;-57
2022/04/17 09:36:08;;;;;;;46.25;12.43;;;;;;;18.78;100.00;100434.56;7395825;19;20024;-57
2022/04/17 09:38:39;;;;;;;16.85;6.07;;;;;;;18.77;100.00;100427.41;7398060;19;20006;-57
2022/04/17 09:41:06;;;;;;;;;;;;;;;18.96;100.00;100421.94;7394688;19;20010;-56
2022/04/17 09:43:35;;;;;;;15.73;5.10;;;;;;;19.16;100.00;100425.19;7396770;19;19915;-57
2022/04/17 09:46:07;;;;;;;14.45;4.65;;;;;;;19.25;100.00;100410.75;7393563;19;20127;-57
2022/04/17 09:48:37;;;;;;;10.80;3.25;;;;;;;19.28;100.00;100411.75;7396801;19;20014;-57
2022/04/17 09:51:19;;;;;;;17.33;5.37;;;;;;;19.35;100.00;100408.41;7390541;19;20042;-57
2022/04/17 09:53:57;;;;;;;14.95;3.80;;;;;;;19.44;100.00;100405.28;7395890;19;20014;-57
2022/04/17 09:56:37;;;;;;;12.23;4.60;;;;;;;19.37;100.00;100405.84;7393747;19;20124;-57
2022/04/17 09:59:16;;;;;;;11.82;4.00;;;;;;;18.88;100.00;100402.72;7391115;19;20467;-57
2022/04/17 10:01:45;;;;;;;14.85;4.55;;;;;;;19.25;100.00;100399.44;7396993;19;20022;-57
2022/04/17 10:04:12;;;;;;;16.70;4.93;;;;;;;19.28;100.00;100398.41;7396177;19;20459;-57
2022/04/17 10:06:38;;;;;;;9.35;4.15;;;;;;;18.72;100.00;100391.50;7397068;19;20070;-57
2022/04/17 10:09:08;;;;;;;12.55;4.45;;;;;;;19.13;100.00;100385.91;7391411;19;20483;-57
2022/04/17 10:11:37;;;;;;;11.32;3.92;;;;;;;19.34;100.00;100379.41;7386172;19;20082;-57
2022/04/17 10:14:06;;;;;;;15.38;4.55;;;;;;;19.31;100.00;100369.13;7393979;19;20016;-57
2022/04/17 10:16:40;;;;;;;14.75;5.55;;;;;;;19.26;100.00;100361.47;7394105;19;20043;-57
2022/04/17 10:19:15;;;;;;;18.67;6.68;;;;;;;18.95;100.00;100363.97;7392992;19;20329;-57
2022/04/17 10:21:42;;;;;;;18.33;5.38;;;;;;;19.07;100.00;100359.78;7394464;19;20014;-57
2022/04/17 10:24:17;;;;;;;12.15;5.25;;;;;;;19.01;100.00;100354.19;7393505;19;20066;-57
2022/04/17 10:26:49;;;;;;;12.85;4.10;;;;;;;19.06;100.00;100353.34;7395144;19;20467;-57
2022/04/17 10:29:28;;;;;;;10.55;3.55;;;;;;;19.09;100.00;100349.50;7395171;19;20018;-57
2022/04/17 10:32:13;;;;;;;17.02;4.68;;;;;;;19.16;100.00;100340.47;7394418;19;20018;-57
2022/04/17 10:34:39;;;;;;;10.57;4.20;;;;;;;19.25;100.00;100331.66;7392077;19;20015;-57
2022/04/17 10:37:37;;;;;;;11.20;4.50;;;;;;;19.26;100.00;100333.22;7391518;19;20477;-57
2022/04/17 10:40:04;;;;;;;14.75;4.68;;;;;;;19.37;100.00;100324.69;7393633;19;20010;-57
2022/04/17 10:42:53;;;;;;;14.23;4.38;;;;;;;19.42;100.00;100318.25;7394893;19;20092;-57
2022/04/17 10:45:19;;;;;;;12.40;5.13;;;;;;;19.49;100.00;100323.31;7394265;19;20339;-57
2022/04/17 10:48:11;;;;;;;14.32;5.47;;;;;;;19.76;100.00;100310.22;7393620;19;20017;-57
2022/04/17 10:50:44;;;;;;;11.05;5.20;;;;;;;19.95;100.00;100313.13;7392928;19;20042;-57
2022/04/17 10:53:22;;;;;;;18.65;4.68;;;;;;;20.07;100.00;100311.72;7393827;19;20328;-57
2022/04/17 10:56:07;;;;;;;14.77;4.15;;;;;;;20.27;100.00;100311.28;7392262;19;20010;-57
2022/04/17 10:58:45;;;;;;;9.55;3.65;;;;;;;20.39;100.00;100298.53;7394988;19;20035;-57
2022/04/17 11:01:12;;;;;;;11.75;4.80;;;;;;;20.57;100.00;100305.50;7397050;19;20035;-57
2022/04/17 11:03:49;;;;;;;10.55;4.10;;;;;;;20.55;100.00;100297.56;7395344;19;20448;-57
2022/04/17 11:06:32;;;;;;;18.80;5.25;;;;;;;20.35;100.00;100289.56;7397659;19;20345;-58
2022/04/17 11:09:10;;;;;;;9.93;3.53;;;;;;;20.38;100.00;100289.25;7397420;19;20022;-57
2022/04/17 11:11:39;;;;;;;20.85;5.28;;;;;;;20.42;100.00;100282.56;7393220;19;20015;-57
2022/04/17 11:14:23;;;;;;;10.32;3.20;;;;;;;20.49;100.00;100277.03;7391692;19;20006;-57
2022/04/17 11:16:56;;;;;;;18.33;4.22;;;;;;;20.63;100.00;100264.50;7396683;19;20072;-57
2022/04/17 11:19:25;;;;;;;11.68;4.45;;;;;;;20.54;100.00;100273.38;7397091;19;20010;-57
2022/04/17 11:21:53;;;;;;;8.68;3.25;;;;;;;20.80;100.00;100270.72;7395989;19;20007;-57
2022/04/17 11:24:22;;;;;;;6.97;2.80;;;;;;;20.98;100.00;100252.16;7396831;19;20010;-57
2022/04/17 11:26:52;;;;;;;7.95;3.95;;;;;;;20.97;100.00;100251.41;7395004;19;20022;-57
2022/04/17 11:29:39;;;;;;;6.38;3.08;;;;;;;20.97;100.00;100248.56;7393129;19;20014;-57